sensor_id;sensor_type;location;lat;lon;timestamp;P1;P2;P0
55043;PMS5003;54902;50.420;18.854;2023-03-01T00:00:01;36;34;21
55043;PMS5003;54902;50.420;18.854;2023-03-01T00:00:33;36;34;21
55043;PMS5003;54902;50.420;18.854;2023-03-01T00:01:05;36;34;21
55043;PMS5003;54902;50.420;18.854;2023-03-01T00:01:38;36;34;21
55043;PMS5003;54902;50.420;18.854;2023-03-01T00:02:09;36;34;21
55043;PMS5003;54902;50.420;18.854;2023-03-01T00:02:40;28;26;16
55043;PMS5003;54902;50.420;18.854;2023-03-01T00:03:11;28;26;16
55043;PMS5003;54902;50.420;18.854;2023-03-01T00:03:43;28;26;16
55043;PMS5003;54902;50.420;18.854;2023-03-01T00:04:14;28;26;16
55043;PMS5003;54902;50.420;18.854;2023-03-01T00:04:45;28;26;16
55043;PMS5003;54902;50.420;18.854;2023-03-01T00:05:16;26;23;14
55043;PMS5003;54902;50.420;18.854;2023-03-01T00:05:47;26;23;14
55043;PMS5003;54902;50.420;18.854;2023-03-01T00:06:19;26;23;14
55043;PMS5003;54902;50.420;18.854;2023-03-01T00:06:50;26;23;14
55043;PMS5003;54902;50.420;18.854;2023-03-01T00:07:21;26;23;14
55043;PMS5003;54902;50.420;18.854;2023-03-01T00:07:53;26;23;14
55043;PMS5003;54902;50.420;18.854;2023-03-01T00:08:24;26;23;14
55043;PMS5003;54902;50.420;18.854;2023-03-01T00:08:56;26;23;14
55043;PMS5003;54902;50.420;18.854;2023-03-01T00:09:27;26;23;14
55043;PMS5003;54902;50.420;18.854;2023-03-01T00:09:58;26;23;14
55043;PMS5003;54902;50.420;18.854;2023-03-01T00:10:29;31;27;16
55043;PMS5003;54902;50.420;18.854;2023-03-01T00:11:10;31;27;16
55043;PMS5003;54902;50.420;18.854;2023-03-01T00:11:37;31;27;16
55043;PMS5003;54902;50.420;18.854;2023-03-01T00:12:09;31;27;16
55043;PMS5003;54902;50.420;18.854;2023-03-01T00:12:41;31;27;16
55043;PMS5003;54902;50.420;18.854;2023-03-01T00:13:12;31;27;16
55043;PMS5003;54902;50.420;18.854;2023-03-01T00:13:43;31;27;16
55043;PMS5003;54902;50.420;18.854;2023-03-01T00:14:14;31;27;16
55043;PMS5003;54902;50.420;18.854;2023-03-01T00:14:49;31;27;16
55043;PMS5003;54902;50.420;18.854;2023-03-01T00:15:20;31;27;16
55043;PMS5003;54902;50.420;18.854;2023-03-01T00:15:50;31;27;16
55043;PMS5003;54902;50.420;18.854;2023-03-01T00:16:25;31;27;16
55043;PMS5003;54902;50.420;18.854;2023-03-01T00:16:59;31;27;16
55043;PMS5003;54902;50.420;18.854;2023-03-01T00:17:30;31;27;16
55043;PMS5003;54902;50.420;18.854;2023-03-01T00:18:01;31;27;16
55043;PMS5003;54902;50.420;18.854;2023-03-01T00:18:32;31;27;16
55043;PMS5003;54902;50.420;18.854;2023-03-01T00:19:03;31;27;16
55043;PMS5003;54902;50.420;18.854;2023-03-01T00:19:34;31;27;16
55043;PMS5003;54902;50.420;18.854;2023-03-01T00:20:06;31;27;16
55043;PMS5003;54902;50.420;18.854;2023-03-01T00:20:40;31;27;16
55043;PMS5003;54902;50.420;18.854;2023-03-01T00:21:11;31;27;16
55043;PMS5003;54902;50.420;18.854;2023-03-01T00:21:42;31;27;16
55043;PMS5003;54902;50.420;18.854;2023-03-01T00:22:13;16;15;11
55043;PMS5003;54902;50.420;18.854;2023-03-01T00:22:44;16;15;11
55043;PMS5003;54902;50.420;18.854;2023-03-01T00:23:15;16;15;11
55043;PMS5003;54902;50.420;18.854;2023-03-01T00:23:46;16;15;11
55043;PMS5003;54902;50.420;18.854;2023-03-01T00:24:18;16;15;11
55043;PMS5003;54902;50.420;18.854;2023-03-01T00:24:49;16;15;11
55043;PMS5003;54902;50.420;18.854;2023-03-01T00:25:20;16;15;11
55043;PMS5003;54902;50.420;18.854;2023-03-01T00:25:51;16;15;11
55043;PMS5003;54902;50.420;18.854;2023-03-01T00:26:23;24;24;17
55043;PMS5003;54902;50.420;18.854;2023-03-01T00:26:55;24;24;17
55043;PMS5003;54902;50.420;18.854;2023-03-01T00:27:27;24;24;17
55043;PMS5003;54902;50.420;18.854;2023-03-01T00:27:57;24;24;17
55043;PMS5003;54902;50.420;18.854;2023-03-01T00:28:28;24;24;17
55043;PMS5003;54902;50.420;18.854;2023-03-01T00:29:00;24;24;17
55043;PMS5003;54902;50.420;18.854;2023-03-01T00:29:31;24;24;17
55043;PMS5003;54902;50.420;18.854;2023-03-01T00:30:02;24;24;17
55043;PMS5003;54902;50.420;18.854;2023-03-01T00:30:33;24;24;17
55043;PMS5003;54902;50.420;18.854;2023-03-01T00:31:05;24;24;17
55043;PMS5003;54902;50.420;18.854;2023-03-01T00:31:38;25;25;18
55043;PMS5003;54902;50.420;18.854;2023-03-01T00:32:09;25;25;18
55043;PMS5003;54902;50.420;18.854;2023-03-01T00:32:40;25;25;18
55043;PMS5003;54902;50.420;18.854;2023-03-01T00:33:11;25;25;18
55043;PMS5003;54902;50.420;18.854;2023-03-01T00:33:42;25;25;18
55043;PMS5003;54902;50.420;18.854;2023-03-01T00:34:14;25;25;18
55043;PMS5003;54902;50.420;18.854;2023-03-01T00:34:45;25;25;18
55043;PMS5003;54902;50.420;18.854;2023-03-01T00:35:27;25;25;18
55043;PMS5003;54902;50.420;18.854;2023-03-01T00:35:58;25;25;18
55043;PMS5003;54902;50.420;18.854;2023-03-01T00:36:31;25;25;18
55043;PMS5003;54902;50.420;18.854;2023-03-01T00:37:04;25;25;18
55043;PMS5003;54902;50.420;18.854;2023-03-01T00:37:35;25;25;18
55043;PMS5003;54902;50.420;18.854;2023-03-01T00:38:06;25;25;18
55043;PMS5003;54902;50.420;18.854;2023-03-01T00:38:38;25;25;18
55043;PMS5003;54902;50.420;18.854;2023-03-01T00:39:12;25;25;18
55043;PMS5003;54902;50.420;18.854;2023-03-01T00:39:44;25;25;18
55043;PMS5003;54902;50.420;18.854;2023-03-01T00:40:15;25;25;18
55043;PMS5003;54902;50.420;18.854;2023-03-01T00:40:46;25;25;18
55043;PMS5003;54902;50.420;18.854;2023-03-01T00:41:18;25;25;18
55043;PMS5003;54902;50.420;18.854;2023-03-01T00:41:50;25;25;18
55043;PMS5003;54902;50.420;18.854;2023-03-01T00:42:21;25;25;18
55043;PMS5003;54902;50.420;18.854;2023-03-01T00:42:53;25;25;18
55043;PMS5003;54902;50.420;18.854;2023-03-01T00:43:24;25;25;18
55043;PMS5003;54902;50.420;18.854;2023-03-01T00:43:55;25;25;18
55043;PMS5003;54902;50.420;18.854;2023-03-01T00:44:26;25;25;18
55043;PMS5003;54902;50.420;18.854;2023-03-01T00:44:58;25;25;18
55043;PMS5003;54902;50.420;18.854;2023-03-01T00:45:29;25;25;18
55043;PMS5003;54902;50.420;18.854;2023-03-01T00:46:02;23;23;16
55043;PMS5003;54902;50.420;18.854;2023-03-01T00:46:34;23;23;16
55043;PMS5003;54902;50.420;18.854;2023-03-01T00:47:05;23;23;16
55043;PMS5003;54902;50.420;18.854;2023-03-01T00:47:36;18;18;12
55043;PMS5003;54902;50.420;18.854;2023-03-01T00:48:07;18;18;12
55043;PMS5003;54902;50.420;18.854;2023-03-01T00:48:38;18;18;12
55043;PMS5003;54902;50.420;18.854;2023-03-01T00:49:09;18;18;12
55043;PMS5003;54902;50.420;18.854;2023-03-01T00:49:40;18;18;12
55043;PMS5003;54902;50.420;18.854;2023-03-01T00:50:11;18;18;12
55043;PMS5003;54902;50.420;18.854;2023-03-01T00:50:42;18;18;12
55043;PMS5003;54902;50.420;18.854;2023-03-01T00:51:14;18;18;12
55043;PMS5003;54902;50.420;18.854;2023-03-01T00:51:50;18;18;12
55043;PMS5003;54902;50.420;18.854;2023-03-01T00:52:21;18;18;12
55043;PMS5003;54902;50.420;18.854;2023-03-01T00:52:53;22;22;15
55043;PMS5003;54902;50.420;18.854;2023-03-01T00:53:25;22;22;15
55043;PMS5003;54902;50.420;18.854;2023-03-01T00:53:58;22;22;15
55043;PMS5003;54902;50.420;18.854;2023-03-01T00:54:30;22;22;15
55043;PMS5003;54902;50.420;18.854;2023-03-01T00:55:01;22;22;15
55043;PMS5003;54902;50.420;18.854;2023-03-01T00:55:32;22;22;15
55043;PMS5003;54902;50.420;18.854;2023-03-01T00:56:03;22;22;15
55043;PMS5003;54902;50.420;18.854;2023-03-01T00:56:36;22;22;15
55043;PMS5003;54902;50.420;18.854;2023-03-01T00:57:07;22;22;15
55043;PMS5003;54902;50.420;18.854;2023-03-01T00:57:38;22;22;15
55043;PMS5003;54902;50.420;18.854;2023-03-01T00:58:09;22;22;15
55043;PMS5003;54902;50.420;18.854;2023-03-01T00:58:40;22;22;15
55043;PMS5003;54902;50.420;18.854;2023-03-01T00:59:11;22;22;15
55043;PMS5003;54902;50.420;18.854;2023-03-01T00:59:42;22;22;15
55043;PMS5003;54902;50.420;18.854;2023-03-01T01:00:13;22;22;15
55043;PMS5003;54902;50.420;18.854;2023-03-01T01:00:45;22;22;15
55043;PMS5003;54902;50.420;18.854;2023-03-01T01:01:20;22;22;15
55043;PMS5003;54902;50.420;18.854;2023-03-01T01:01:52;22;22;15
55043;PMS5003;54902;50.420;18.854;2023-03-01T01:02:23;22;22;15
55043;PMS5003;54902;50.420;18.854;2023-03-01T01:02:54;22;22;15
55043;PMS5003;54902;50.420;18.854;2023-03-01T01:03:25;22;22;15
55043;PMS5003;54902;50.420;18.854;2023-03-01T01:03:57;13;11;8
55043;PMS5003;54902;50.420;18.854;2023-03-01T01:04:30;13;11;8
55043;PMS5003;54902;50.420;18.854;2023-03-01T01:05:01;13;11;8
55043;PMS5003;54902;50.420;18.854;2023-03-01T01:05:34;13;11;8
55043;PMS5003;54902;50.420;18.854;2023-03-01T01:06:05;13;11;8
55043;PMS5003;54902;50.420;18.854;2023-03-01T01:06:40;13;11;8
55043;PMS5003;54902;50.420;18.854;2023-03-01T01:07:13;13;11;8
55043;PMS5003;54902;50.420;18.854;2023-03-01T01:07:45;13;11;8
55043;PMS5003;54902;50.420;18.854;2023-03-01T01:08:16;13;11;8
55043;PMS5003;54902;50.420;18.854;2023-03-01T01:08:47;24;21;13
55043;PMS5003;54902;50.420;18.854;2023-03-01T01:09:18;24;21;13
55043;PMS5003;54902;50.420;18.854;2023-03-01T01:09:49;24;21;13
55043;PMS5003;54902;50.420;18.854;2023-03-01T01:10:20;24;21;13
55043;PMS5003;54902;50.420;18.854;2023-03-01T01:10:51;24;21;13
55043;PMS5003;54902;50.420;18.854;2023-03-01T01:11:23;24;21;13
55043;PMS5003;54902;50.420;18.854;2023-03-01T01:11:55;24;21;13
55043;PMS5003;54902;50.420;18.854;2023-03-01T01:12:25;24;21;13
55043;PMS5003;54902;50.420;18.854;2023-03-01T01:12:56;24;21;13
55043;PMS5003;54902;50.420;18.854;2023-03-01T01:13:28;24;21;13
55043;PMS5003;54902;50.420;18.854;2023-03-01T01:13:59;24;21;13
55043;PMS5003;54902;50.420;18.854;2023-03-01T01:14:30;24;21;13
55043;PMS5003;54902;50.420;18.854;2023-03-01T01:15:01;24;21;13
55043;PMS5003;54902;50.420;18.854;2023-03-01T01:15:34;24;21;13
55043;PMS5003;54902;50.420;18.854;2023-03-01T01:16:06;24;21;13
55043;PMS5003;54902;50.420;18.854;2023-03-01T01:16:37;24;21;13
55043;PMS5003;54902;50.420;18.854;2023-03-01T01:17:08;24;21;13
55043;PMS5003;54902;50.420;18.854;2023-03-01T01:17:39;24;21;13
55043;PMS5003;54902;50.420;18.854;2023-03-01T01:18:11;24;21;13
55043;PMS5003;54902;50.420;18.854;2023-03-01T01:18:42;24;21;13
55043;PMS5003;54902;50.420;18.854;2023-03-01T01:19:14;24;21;13
55043;PMS5003;54902;50.420;18.854;2023-03-01T01:19:45;24;21;13
55043;PMS5003;54902;50.420;18.854;2023-03-01T01:20:16;24;21;13
55043;PMS5003;54902;50.420;18.854;2023-03-01T01:20:47;24;21;13
55043;PMS5003;54902;50.420;18.854;2023-03-01T01:21:19;24;21;13
55043;PMS5003;54902;50.420;18.854;2023-03-01T01:21:52;24;21;13
55043;PMS5003;54902;50.420;18.854;2023-03-01T01:22:23;24;21;13
55043;PMS5003;54902;50.420;18.854;2023-03-01T01:22:54;24;21;13
55043;PMS5003;54902;50.420;18.854;2023-03-01T01:23:25;24;21;13
55043;PMS5003;54902;50.420;18.854;2023-03-01T01:23:57;24;21;13
55043;PMS5003;54902;50.420;18.854;2023-03-01T01:24:28;24;21;13
55043;PMS5003;54902;50.420;18.854;2023-03-01T01:25:00;24;21;13
55043;PMS5003;54902;50.420;18.854;2023-03-01T01:25:33;24;21;13
55043;PMS5003;54902;50.420;18.854;2023-03-01T01:26:05;24;21;13
55043;PMS5003;54902;50.420;18.854;2023-03-01T01:26:38;24;21;13
55043;PMS5003;54902;50.420;18.854;2023-03-01T01:27:09;24;21;13
55043;PMS5003;54902;50.420;18.854;2023-03-01T01:27:39;24;21;13
55043;PMS5003;54902;50.420;18.854;2023-03-01T01:28:11;24;21;13
55043;PMS5003;54902;50.420;18.854;2023-03-01T01:28:42;24;21;13
55043;PMS5003;54902;50.420;18.854;2023-03-01T01:29:13;24;21;13
55043;PMS5003;54902;50.420;18.854;2023-03-01T01:29:44;24;21;13
55043;PMS5003;54902;50.420;18.854;2023-03-01T01:30:15;24;21;13
55043;PMS5003;54902;50.420;18.854;2023-03-01T01:30:46;24;21;13
55043;PMS5003;54902;50.420;18.854;2023-03-01T01:31:18;24;21;13
55043;PMS5003;54902;50.420;18.854;2023-03-01T01:31:49;24;21;13
55043;PMS5003;54902;50.420;18.854;2023-03-01T01:32:19;24;21;13
55043;PMS5003;54902;50.420;18.854;2023-03-01T01:32:50;24;21;13
55043;PMS5003;54902;50.420;18.854;2023-03-01T01:33:21;24;21;13
55043;PMS5003;54902;50.420;18.854;2023-03-01T01:33:52;24;21;13
55043;PMS5003;54902;50.420;18.854;2023-03-01T01:34:24;24;21;13
55043;PMS5003;54902;50.420;18.854;2023-03-01T01:34:55;24;21;13
55043;PMS5003;54902;50.420;18.854;2023-03-01T01:35:25;24;21;13
55043;PMS5003;54902;50.420;18.854;2023-03-01T01:35:57;24;21;13
55043;PMS5003;54902;50.420;18.854;2023-03-01T01:36:29;24;21;13
55043;PMS5003;54902;50.420;18.854;2023-03-01T01:37:00;19;18;12
55043;PMS5003;54902;50.420;18.854;2023-03-01T01:37:33;19;18;12
55043;PMS5003;54902;50.420;18.854;2023-03-01T01:38:07;19;18;12
55043;PMS5003;54902;50.420;18.854;2023-03-01T01:38:38;19;18;12
55043;PMS5003;54902;50.420;18.854;2023-03-01T01:39:09;19;18;12
55043;PMS5003;54902;50.420;18.854;2023-03-01T01:39:44;19;18;12
55043;PMS5003;54902;50.420;18.854;2023-03-01T01:40:15;16;16;11
55043;PMS5003;54902;50.420;18.854;2023-03-01T01:40:46;16;16;11
55043;PMS5003;54902;50.420;18.854;2023-03-01T01:41:19;16;16;11
55043;PMS5003;54902;50.420;18.854;2023-03-01T01:41:50;16;16;11
55043;PMS5003;54902;50.420;18.854;2023-03-01T01:42:21;16;16;11
55043;PMS5003;54902;50.420;18.854;2023-03-01T01:42:52;16;16;11
55043;PMS5003;54902;50.420;18.854;2023-03-01T01:43:28;16;16;11
55043;PMS5003;54902;50.420;18.854;2023-03-01T01:44:46;16;16;11
55043;PMS5003;54902;50.420;18.854;2023-03-01T01:47:26;19;19;13
55043;PMS5003;54902;50.420;18.854;2023-03-01T01:47:58;19;19;13
55043;PMS5003;54902;50.420;18.854;2023-03-01T01:48:41;19;19;13
55043;PMS5003;54902;50.420;18.854;2023-03-01T01:49:58;19;19;13
55043;PMS5003;54902;50.420;18.854;2023-03-01T01:50:30;19;19;13
55043;PMS5003;54902;50.420;18.854;2023-03-01T01:51:14;19;19;13
55043;PMS5003;54902;50.420;18.854;2023-03-01T01:51:54;19;19;13
55043;PMS5003;54902;50.420;18.854;2023-03-01T01:52:34;19;19;13
55043;PMS5003;54902;50.420;18.854;2023-03-01T01:53:07;19;19;13
55043;PMS5003;54902;50.420;18.854;2023-03-01T01:53:42;19;19;13
55043;PMS5003;54902;50.420;18.854;2023-03-01T01:54:22;10;10;5
55043;PMS5003;54902;50.420;18.854;2023-03-01T01:55:43;10;10;5
55043;PMS5003;54902;50.420;18.854;2023-03-01T01:56:17;10;10;5
55043;PMS5003;54902;50.420;18.854;2023-03-01T01:56:52;10;10;5
55043;PMS5003;54902;50.420;18.854;2023-03-01T01:57:32;10;10;5
55043;PMS5003;54902;50.420;18.854;2023-03-01T01:58:08;10;10;5
55043;PMS5003;54902;50.420;18.854;2023-03-01T01:58:41;8;8;2
55043;PMS5003;54902;50.420;18.854;2023-03-01T01:59:15;8;8;2
55043;PMS5003;54902;50.420;18.854;2023-03-01T01:59:47;8;8;2
55043;PMS5003;54902;50.420;18.854;2023-03-01T02:00:24;8;8;2
55043;PMS5003;54902;50.420;18.854;2023-03-01T02:00:58;8;8;2
55043;PMS5003;54902;50.420;18.854;2023-03-01T02:01:32;9;9;5
55043;PMS5003;54902;50.420;18.854;2023-03-01T02:02:03;9;9;5
55043;PMS5003;54902;50.420;18.854;2023-03-01T02:02:34;9;9;5
55043;PMS5003;54902;50.420;18.854;2023-03-01T02:03:10;9;9;5
55043;PMS5003;54902;50.420;18.854;2023-03-01T02:03:47;9;9;5
55043;PMS5003;54902;50.420;18.854;2023-03-01T02:04:19;15;15;10
55043;PMS5003;54902;50.420;18.854;2023-03-01T02:04:53;15;15;10
55043;PMS5003;54902;50.420;18.854;2023-03-01T02:05:38;15;15;10
55043;PMS5003;54902;50.420;18.854;2023-03-01T02:06:26;15;15;10
55043;PMS5003;54902;50.420;18.854;2023-03-01T02:07:01;15;15;10
55043;PMS5003;54902;50.420;18.854;2023-03-01T02:07:38;12;12;7
55043;PMS5003;54902;50.420;18.854;2023-03-01T02:08:11;12;12;7
55043;PMS5003;54902;50.420;18.854;2023-03-01T02:08:43;12;12;7
55043;PMS5003;54902;50.420;18.854;2023-03-01T02:09:18;12;12;7
55043;PMS5003;54902;50.420;18.854;2023-03-01T02:09:51;12;12;7
55043;PMS5003;54902;50.420;18.854;2023-03-01T02:10:23;5;5;2
55043;PMS5003;54902;50.420;18.854;2023-03-01T02:10:55;5;5;2
55043;PMS5003;54902;50.420;18.854;2023-03-01T02:11:30;5;5;2
55043;PMS5003;54902;50.420;18.854;2023-03-01T02:12:03;5;5;2
55043;PMS5003;54902;50.420;18.854;2023-03-01T02:12:35;5;5;2
55043;PMS5003;54902;50.420;18.854;2023-03-01T02:13:07;24;21;12
55043;PMS5003;54902;50.420;18.854;2023-03-01T02:13:39;24;21;12
55043;PMS5003;54902;50.420;18.854;2023-03-01T02:14:11;24;21;12
55043;PMS5003;54902;50.420;18.854;2023-03-01T02:14:42;24;21;12
55043;PMS5003;54902;50.420;18.854;2023-03-01T02:15:13;24;21;12
55043;PMS5003;54902;50.420;18.854;2023-03-01T02:15:44;78;59;36
55043;PMS5003;54902;50.420;18.854;2023-03-01T02:16:15;78;59;36
55043;PMS5003;54902;50.420;18.854;2023-03-01T02:16:47;78;59;36
55043;PMS5003;54902;50.420;18.854;2023-03-01T02:17:18;78;59;36
55043;PMS5003;54902;50.420;18.854;2023-03-01T02:17:51;78;59;36
55043;PMS5003;54902;50.420;18.854;2023-03-01T02:18:24;78;59;36
55043;PMS5003;54902;50.420;18.854;2023-03-01T02:18:56;78;59;36
55043;PMS5003;54902;50.420;18.854;2023-03-01T02:19:39;78;59;36
55043;PMS5003;54902;50.420;18.854;2023-03-01T02:21:42;91;69;42
55043;PMS5003;54902;50.420;18.854;2023-03-01T02:22:24;91;69;42
55043;PMS5003;54902;50.420;18.854;2023-03-01T02:23:00;91;69;42
55043;PMS5003;54902;50.420;18.854;2023-03-01T02:23:31;91;69;42
55043;PMS5003;54902;50.420;18.854;2023-03-01T02:24:17;91;69;42
55043;PMS5003;54902;50.420;18.854;2023-03-01T02:26:54;91;69;42
55043;PMS5003;54902;50.420;18.854;2023-03-01T02:27:29;91;69;42
55043;PMS5003;54902;50.420;18.854;2023-03-01T02:28:17;91;69;42
55043;PMS5003;54902;50.420;18.854;2023-03-01T02:28:51;91;69;42
55043;PMS5003;54902;50.420;18.854;2023-03-01T02:29:22;91;69;42
55043;PMS5003;54902;50.420;18.854;2023-03-01T02:29:54;91;69;42
55043;PMS5003;54902;50.420;18.854;2023-03-01T02:30:25;91;69;42
55043;PMS5003;54902;50.420;18.854;2023-03-01T02:30:56;91;69;42
55043;PMS5003;54902;50.420;18.854;2023-03-01T02:31:40;91;69;42
55043;PMS5003;54902;50.420;18.854;2023-03-01T02:32:15;91;69;42
55043;PMS5003;54902;50.420;18.854;2023-03-01T02:32:55;91;69;42
55043;PMS5003;54902;50.420;18.854;2023-03-01T02:33:33;91;69;42
55043;PMS5003;54902;50.420;18.854;2023-03-01T02:34:07;91;69;42
55043;PMS5003;54902;50.420;18.854;2023-03-01T02:34:41;91;69;42
55043;PMS5003;54902;50.420;18.854;2023-03-01T02:35:14;91;69;42
55043;PMS5003;54902;50.420;18.854;2023-03-01T02:35:48;91;69;42
55043;PMS5003;54902;50.420;18.854;2023-03-01T02:36:20;91;69;42
55043;PMS5003;54902;50.420;18.854;2023-03-01T02:36:56;91;69;42
55043;PMS5003;54902;50.420;18.854;2023-03-01T02:37:35;91;69;42
55043;PMS5003;54902;50.420;18.854;2023-03-01T02:38:07;91;69;42
55043;PMS5003;54902;50.420;18.854;2023-03-01T02:38:40;91;69;42
55043;PMS5003;54902;50.420;18.854;2023-03-01T02:39:17;91;69;42
55043;PMS5003;54902;50.420;18.854;2023-03-01T02:40:08;91;69;42
55043;PMS5003;54902;50.420;18.854;2023-03-01T02:40:33;91;69;42
55043;PMS5003;54902;50.420;18.854;2023-03-01T02:41:06;91;69;42
55043;PMS5003;54902;50.420;18.854;2023-03-01T02:41:40;91;69;42
55043;PMS5003;54902;50.420;18.854;2023-03-01T02:42:15;91;69;42
55043;PMS5003;54902;50.420;18.854;2023-03-01T02:42:54;91;69;42
55043;PMS5003;54902;50.420;18.854;2023-03-01T02:43:28;91;69;42
55043;PMS5003;54902;50.420;18.854;2023-03-01T02:44:02;91;69;42
55043;PMS5003;54902;50.420;18.854;2023-03-01T02:44:34;91;69;42
55043;PMS5003;54902;50.420;18.854;2023-03-01T02:45:05;91;69;42
55043;PMS5003;54902;50.420;18.854;2023-03-01T02:45:37;91;69;42
55043;PMS5003;54902;50.420;18.854;2023-03-01T02:46:53;91;69;42
55043;PMS5003;54902;50.420;18.854;2023-03-01T02:47:28;91;69;42
55043;PMS5003;54902;50.420;18.854;2023-03-01T02:47:59;91;69;42
55043;PMS5003;54902;50.420;18.854;2023-03-01T02:48:39;91;69;42
55043;PMS5003;54902;50.420;18.854;2023-03-01T02:49:54;91;69;42
55043;PMS5003;54902;50.420;18.854;2023-03-01T02:50:37;91;69;42
55043;PMS5003;54902;50.420;18.854;2023-03-01T02:54:46;91;69;42
55043;PMS5003;54902;50.420;18.854;2023-03-01T02:55:21;91;69;42
55043;PMS5003;54902;50.420;18.854;2023-03-01T02:55:52;91;69;42
55043;PMS5003;54902;50.420;18.854;2023-03-01T02:56:24;91;69;42
55043;PMS5003;54902;50.420;18.854;2023-03-01T02:56:56;91;69;42
55043;PMS5003;54902;50.420;18.854;2023-03-01T02:57:28;91;69;42
55043;PMS5003;54902;50.420;18.854;2023-03-01T02:58:02;91;69;42
55043;PMS5003;54902;50.420;18.854;2023-03-01T02:58:33;91;69;42
55043;PMS5003;54902;50.420;18.854;2023-03-01T02:59:15;32;26;17
55043;PMS5003;54902;50.420;18.854;2023-03-01T02:59:50;32;26;17
55043;PMS5003;54902;50.420;18.854;2023-03-01T03:00:24;32;26;17
55043;PMS5003;54902;50.420;18.854;2023-03-01T03:01:03;32;26;17
55043;PMS5003;54902;50.420;18.854;2023-03-01T03:01:34;32;26;17
55043;PMS5003;54902;50.420;18.854;2023-03-01T03:02:18;32;26;17
55043;PMS5003;54902;50.420;18.854;2023-03-01T03:03:03;32;26;17
55043;PMS5003;54902;50.420;18.854;2023-03-01T03:03:34;32;26;17
55043;PMS5003;54902;50.420;18.854;2023-03-01T03:04:10;18;15;11
55043;PMS5003;54902;50.420;18.854;2023-03-01T03:04:47;18;15;11
55043;PMS5003;54902;50.420;18.854;2023-03-01T03:05:19;18;15;11
55043;PMS5003;54902;50.420;18.854;2023-03-01T03:05:52;18;15;11
55043;PMS5003;54902;50.420;18.854;2023-03-01T03:06:24;18;15;11
55043;PMS5003;54902;50.420;18.854;2023-03-01T03:06:55;18;15;11
55043;PMS5003;54902;50.420;18.854;2023-03-01T03:07:26;18;15;11
55043;PMS5003;54902;50.420;18.854;2023-03-01T03:07:57;18;15;11
55043;PMS5003;54902;50.420;18.854;2023-03-01T03:08:29;18;15;11
55043;PMS5003;54902;50.420;18.854;2023-03-01T03:09:00;18;15;11
55043;PMS5003;54902;50.420;18.854;2023-03-01T03:09:32;19;16;12
55043;PMS5003;54902;50.420;18.854;2023-03-01T03:10:03;19;16;12
55043;PMS5003;54902;50.420;18.854;2023-03-01T03:10:37;19;16;12
55043;PMS5003;54902;50.420;18.854;2023-03-01T03:11:15;19;16;12
55043;PMS5003;54902;50.420;18.854;2023-03-01T03:11:46;19;16;12
55043;PMS5003;54902;50.420;18.854;2023-03-01T03:12:18;19;16;12
55043;PMS5003;54902;50.420;18.854;2023-03-01T03:12:49;19;16;12
55043;PMS5003;54902;50.420;18.854;2023-03-01T03:13:22;19;16;12
55043;PMS5003;54902;50.420;18.854;2023-03-01T03:13:58;19;16;12
55043;PMS5003;54902;50.420;18.854;2023-03-01T03:14:29;19;16;12
55043;PMS5003;54902;50.420;18.854;2023-03-01T03:15:05;19;16;12
55043;PMS5003;54902;50.420;18.854;2023-03-01T03:15:39;19;16;12
55043;PMS5003;54902;50.420;18.854;2023-03-01T03:16:11;19;16;12
55043;PMS5003;54902;50.420;18.854;2023-03-01T03:16:45;19;16;12
55043;PMS5003;54902;50.420;18.854;2023-03-01T03:17:18;19;16;12
55043;PMS5003;54902;50.420;18.854;2023-03-01T03:17:49;19;16;12
55043;PMS5003;54902;50.420;18.854;2023-03-01T03:18:22;19;16;12
55043;PMS5003;54902;50.420;18.854;2023-03-01T03:18:56;19;16;12
55043;PMS5003;54902;50.420;18.854;2023-03-01T03:19:35;19;16;12
55043;PMS5003;54902;50.420;18.854;2023-03-01T03:20:06;19;16;12
55043;PMS5003;54902;50.420;18.854;2023-03-01T03:20:42;19;16;12
55043;PMS5003;54902;50.420;18.854;2023-03-01T03:21:15;8;8;7
55043;PMS5003;54902;50.420;18.854;2023-03-01T03:21:46;8;8;7
55043;PMS5003;54902;50.420;18.854;2023-03-01T03:22:17;8;8;7
55043;PMS5003;54902;50.420;18.854;2023-03-01T03:22:50;8;8;7
55043;PMS5003;54902;50.420;18.854;2023-03-01T03:23:23;8;8;7
55043;PMS5003;54902;50.420;18.854;2023-03-01T03:23:54;8;8;7
55043;PMS5003;54902;50.420;18.854;2023-03-01T03:24:25;8;8;7
55043;PMS5003;54902;50.420;18.854;2023-03-01T03:25:02;8;8;7
55043;PMS5003;54902;50.420;18.854;2023-03-01T03:25:33;13;13;10
55043;PMS5003;54902;50.420;18.854;2023-03-01T03:26:07;10;10;8
55043;PMS5003;54902;50.420;18.854;2023-03-01T03:26:38;10;10;8
55043;PMS5003;54902;50.420;18.854;2023-03-01T03:27:09;10;10;8
55043;PMS5003;54902;50.420;18.854;2023-03-01T03:27:41;10;10;8
55043;PMS5003;54902;50.420;18.854;2023-03-01T03:28:14;10;10;8
55043;PMS5003;54902;50.420;18.854;2023-03-01T03:28:46;10;10;8
55043;PMS5003;54902;50.420;18.854;2023-03-01T03:29:17;10;10;8
55043;PMS5003;54902;50.420;18.854;2023-03-01T03:29:47;10;10;8
55043;PMS5003;54902;50.420;18.854;2023-03-01T03:30:19;10;10;8
55043;PMS5003;54902;50.420;18.854;2023-03-01T03:30:51;10;10;8
55043;PMS5003;54902;50.420;18.854;2023-03-01T03:31:22;13;13;10
55043;PMS5003;54902;50.420;18.854;2023-03-01T03:31:53;13;13;10
55043;PMS5003;54902;50.420;18.854;2023-03-01T03:32:24;13;13;10
55043;PMS5003;54902;50.420;18.854;2023-03-01T03:32:56;13;13;10
55043;PMS5003;54902;50.420;18.854;2023-03-01T03:33:27;13;13;10
55043;PMS5003;54902;50.420;18.854;2023-03-01T03:33:58;13;13;10
55043;PMS5003;54902;50.420;18.854;2023-03-01T03:34:29;13;13;10
55043;PMS5003;54902;50.420;18.854;2023-03-01T03:35:01;13;13;10
55043;PMS5003;54902;50.420;18.854;2023-03-01T03:35:33;13;13;10
55043;PMS5003;54902;50.420;18.854;2023-03-01T03:36:08;13;13;10
55043;PMS5003;54902;50.420;18.854;2023-03-01T03:36:43;19;19;13
55043;PMS5003;54902;50.420;18.854;2023-03-01T03:37:14;19;19;13
55043;PMS5003;54902;50.420;18.854;2023-03-01T03:37:56;19;19;13
55043;PMS5003;54902;50.420;18.854;2023-03-01T03:38:34;19;19;13
55043;PMS5003;54902;50.420;18.854;2023-03-01T03:39:05;19;19;13
55043;PMS5003;54902;50.420;18.854;2023-03-01T03:39:35;19;19;13
55043;PMS5003;54902;50.420;18.854;2023-03-01T03:40:07;19;19;13
55043;PMS5003;54902;50.420;18.854;2023-03-01T03:40:46;19;19;13
55043;PMS5003;54902;50.420;18.854;2023-03-01T03:41:22;19;19;13